Time;durP1;ratioP1;P1;durP2;ratioP2;P2;SDS_P1;SDS_P2;PMS_P1;PMS_P2;Temp;Humidity;BMP_temperature;BMP_pressure;BME280_temperature;BME280_humidity;BME280_pressure;Samples;Min_cycle;Max_cycle;Signal;HPM_P1;HPM_P2
2023/07/26 02:09:57;;;;;;;4.15;2.70;;;24.40;36.50;;;;;;20898379;28;20422;-59
2023/07/26 02:19:58;;;;;;;5.82;2.97;;;24.20;37.20;;;;;;20856972;28;20060;-59
2023/07/26 02:29:59;;;;;;;6.05;2.50;;;24.20;37.40;;;;;;20856481;28;20041;-59
2023/07/26 02:39:59;;;;;;;6.43;2.33;;;24.00;37.90;;;;;;20854775;28;20124;-59
2023/07/26 02:50:03;;;;;;;5.15;2.38;;;23.90;38.40;;;;;;20855942;28;20037;-58
2023/07/26 03:00:06;;;;;;;6.72;2.45;;;23.80;38.60;;;;;;20845805;28;20459;-57
2023/07/26 03:10:07;;;;;;;6.93;2.70;;;23.70;38.60;;;;;;20865464;28;20127;-58
2023/07/26 03:20:08;;;;;;;9.65;3.15;;;23.60;39.10;;;;;;20923636;28;20084;-58
2023/07/26 03:30:09;;;;;;;7.45;2.75;;;23.40;39.40;;;;;;20922857;28;20491;-58
2023/07/26 03:40:11;;;;;;;7.03;3.30;;;23.30;39.70;;;;;;20921818;28;20320;-58
2023/07/26 03:50:11;;;;;;;6.38;2.60;;;23.30;39.90;;;;;;20921446;28;20048;-59
2023/07/26 04:00:13;;;;;;;5.45;2.75;;;23.20;40.10;;;;;;20920433;28;20044;-59
2023/07/26 04:10:13;;;;;;;5.60;2.85;;;23.10;40.60;;;;;;20917453;28;20053;-58
2023/07/26 04:20:14;;;;;;;4.40;2.20;;;23.00;40.80;;;;;;20918650;28;20577;-58
2023/07/26 04:30:15;;;;;;;7.05;2.72;;;22.90;41.10;;;;;;20917956;28;20103;-58
2023/07/26 04:40:16;;;;;;;6.75;2.17;;;22.90;41.10;;;;;;20915983;28;20084;-59
2023/07/26 04:50:16;;;;;;;8.80;2.72;;;22.70;41.30;;;;;;20915411;28;20482;-58
2023/07/26 05:00:17;;;;;;;4.50;2.50;;;22.50;41.90;;;;;;20914472;28;20045;-59
2023/07/26 05:10:19;;;;;;;5.45;2.47;;;22.30;42.30;;;;;;20914239;28;20053;-58
2023/07/26 05:20:20;;;;;;;4.65;2.33;;;22.20;42.50;;;;;;20912537;28;20048;-58
2023/07/26 05:30:20;;;;;;;3.78;2.08;;;22.30;42.50;;;;;;20912392;28;20095;-59
2023/07/26 05:40:21;;;;;;;7.13;2.70;;;22.20;42.80;;;;;;20913170;28;20510;-57
2023/07/26 05:50:22;;;;;;;7.95;2.78;;;22.10;43.00;;;;;;20911629;28;20049;-57
2023/07/26 06:00:23;;;;;;;5.47;2.67;;;22.10;43.00;;;;;;20912783;28;20127;-57
2023/07/26 06:10:23;;;;;;;6.30;2.88;;;22.00;43.20;;;;;;20912404;28;20064;-58
2023/07/26 06:20:24;;;;;;;10.70;2.95;;;22.00;43.30;;;;;;20911962;28;20045;-59
2023/07/26 06:30:25;;;;;;;3.75;2.20;;;22.10;43.00;;;;;;20913159;28;20402;-57
2023/07/26 06:40:26;;;;;;;7.63;2.78;;;22.20;42.90;;;;;;20926308;28;20049;-57
2023/07/26 06:50:26;;;;;;;18.25;3.40;;;22.30;43.00;;;;;;20925637;28;20056;-59
2023/07/26 07:00:27;;;;;;;6.50;2.80;;;22.50;42.60;;;;;;20925110;28;20045;-59
2023/07/26 07:10:28;;;;;;;5.93;2.70;;;23.10;41.40;;;;;;20922889;28;20076;-57
2023/07/26 07:20:29;;;;;;;7.43;2.50;;;23.70;40.30;;;;;;20922913;28;20037;-58
2023/07/26 07:30:32;;;;;;;12.15;3.10;;;24.20;39.40;;;;;;20922764;28;20049;-58
2023/07/26 07:40:32;;;;;;;7.70;2.92;;;24.40;38.60;;;;;;20920464;28;20110;-57
2023/07/26 07:50:33;;;;;;;6.80;2.75;;;24.80;38.20;;;;;;20919135;28;20041;-57
2023/07/26 08:00:34;;;;;;;8.33;2.90;;;25.10;37.70;;;;;;20920355;28;20144;-58
2023/07/26 08:10:38;;;;;;;4.47;2.53;;;25.30;37.00;;;;;;20918853;28;20061;-57
2023/07/26 08:20:39;;;;;;;10.38;2.92;;;25.90;37.80;;;;;;20917442;28;20076;-58
2023/07/26 08:30:40;;;;;;;8.67;3.30;;;26.70;36.90;;;;;;20916601;28;20567;-57
2023/07/26 08:40:50;;;;;;;;;;;27.00;36.30;;;;;;20917619;28;20064;-57
2023/07/26 08:50:51;;;;;;;5.70;2.47;;;27.40;35.80;;;;;;20915938;28;19920;-59
2023/07/26 09:00:53;;;;;;;5.93;2.57;;;27.40;35.50;;;;;;20914847;28;20398;-57
2023/07/26 09:10:53;;;;;;;7.32;2.80;;;27.60;34.70;;;;;;20914119;28;20057;-57
2023/07/26 09:21:03;;;;;;;5.30;2.87;;;27.70;34.30;;;;;;20913036;28;20102;-57
2023/07/26 09:31:04;;;;;;;7.35;2.85;;;27.90;34.80;;;;;;20913786;28;20413;-58
2023/07/26 09:41:23;;;;;;;6.03;2.75;;;28.10;33.60;;;;;;20912973;28;20084;-57
2023/07/26 09:51:29;;;;;;;4.93;2.53;;;28.20;32.40;;;;;;20912478;28;20041;-56
2023/07/26 10:01:34;;;;;;;9.82;2.60;;;28.10;32.10;;;;;;20912146;28;20044;-56
2023/07/26 10:11:36;;;;;;;4.60;2.30;;;28.30;32.10;;;;;;20923695;28;20474;-57
2023/07/26 10:21:38;;;;;;;6.38;2.40;;;28.40;29.80;;;;;;20926904;28;20453;-56
2023/07/26 10:31:40;;;;;;;7.93;3.50;;;28.50;29.70;;;;;;20926752;28;20128;-57
2023/07/26 10:41:50;;;;;;;5.25;2.55;;;28.50;29.40;;;;;;20925530;28;20057;-57
2023/07/26 10:52:03;;;;;;;8.10;6.32;;;28.60;29.00;;;;;;20925127;28;20049;-57
2023/07/26 11:02:05;;;;;;;7.35;3.22;;;28.60;29.30;;;;;;20924431;28;20506;-58
2023/07/26 11:12:15;;;;;;;5.03;2.80;;;28.80;28.60;;;;;;20922843;28;20065;-57
2023/07/26 11:22:18;;;;;;;5.93;2.95;;;29.00;28.50;;;;;;20920914;28;20080;-56
2023/07/26 11:32:25;;;;;;;6.00;3.15;;;28.90;28.30;;;;;;20922243;28;20164;-56
2023/07/26 11:42:26;;;;;;;4.53;3.05;;;29.00;28.10;;;;;;20921812;28;20045;-56
2023/07/26 11:52:28;;;;;;;6.45;2.83;;;29.00;27.40;;;;;;20921219;28;20052;-56
2023/07/26 12:02:29;;;;;;;7.40;3.55;;;29.10;27.10;;;;;;20919308;28;20049;-56
2023/07/26 12:12:40;;;;;;;5.90;3.17;;;29.40;27.30;;;;;;20918155;28;20150;-57
2023/07/26 12:22:50;;;;;;;4.50;3.03;;;29.60;26.90;;;;;;20918341;28;20045;-58
2023/07/26 12:33:10;;;;;;;;;;;29.90;26.50;;;;;;20916393;28;20082;-57
2023/07/26 12:43:28;;;;;;;4.60;2.55;;;29.80;26.40;;;;;;20916261;28;19921;-56
2023/07/26 12:53:29;;;;;;;6.15;3.10;;;30.20;26.30;;;;;;20915811;28;20462;-56
2023/07/26 13:03:30;;;;;;;8.00;3.40;;;30.30;25.80;;;;;;20915792;28;20041;-56
2023/07/26 13:13:31;;;;;;;6.18;3.10;;;30.60;25.30;;;;;;20896462;28;20053;-56
2023/07/26 13:23:32;;;;;;;4.00;3.10;;;30.70;24.70;;;;;;20913392;28;20072;-58
2023/07/26 13:33:32;;;;;;;5.22;3.40;;;30.80;23.70;;;;;;20913970;28;20045;-58
2023/07/26 13:43:33;;;;;;;6.28;3.38;;;31.00;23.80;;;;;;20912765;28;20064;-58
2023/07/26 13:53:34;;;;;;;7.15;3.17;;;30.90;23.70;;;;;;20911337;28;20037;-56
2023/07/26 14:03:34;;;;;;;5.35;3.88;;;31.10;23.60;;;;;;20910891;28;20131;-55
2023/07/26 14:13:36;;;;;;;5.20;3.08;;;31.50;23.40;;;;;;20912277;28;20067;-56
2023/07/26 14:23:37;;;;;;;7.18;3.20;;;31.50;23.10;;;;;;20911436;28;20044;-57
2023/07/26 14:33:37;;;;;;;5.80;3.13;;;31.40;23.10;;;;;;20910426;28;20049;-57
2023/07/26 14:43:38;;;;;;;7.72;4.05;;;31.70;22.60;;;;;;20911033;28;20128;-57
2023/07/26 14:53:39;;;;;;;6.55;3.33;;;31.60;22.60;;;;;;20914790;28;20449;-57
2023/07/26 15:03:40;;;;;;;4.45;3.03;;;31.80;22.40;;;;;;20925184;28;20533;-57
2023/07/26 15:13:40;;;;;;;5.28;3.33;;;32.00;22.10;;;;;;20924344;28;20060;-56
2023/07/26 15:23:41;;;;;;;4.72;3.58;;;31.90;22.50;;;;;;20923208;28;20558;-57
2023/07/26 15:33:42;;;;;;;11.32;4.97;;;32.20;22.20;;;;;;20922732;28;20179;-58
2023/07/26 15:43:42;;;;;;;8.27;4.47;;;32.10;22.30;;;;;;20921913;28;20049;-58
2023/07/26 15:53:44;;;;;;;5.25;4.03;;;32.20;21.80;;;;;;20921690;28;20467;-58
2023/07/26 16:03:46;;;;;;;7.18;4.18;;;32.20;21.60;;;;;;20919693;28;20052;-59
2023/07/26 16:13:47;;;;;;;7.05;3.90;;;32.30;22.20;;;;;;20918421;28;20110;-59
2023/07/26 16:23:48;;;;;;;7.57;4.10;;;32.30;21.80;;;;;;20918705;28;20084;-58
2023/07/26 16:33:48;;;;;;;5.55;3.63;;;32.30;22.10;;;;;;20917799;28;20049;-58
2023/07/26 16:43:49;;;;;;;9.70;3.97;;;32.30;21.70;;;;;;20916179;28;20124;-58
2023/07/26 16:53:52;;;;;;;9.02;4.55;;;32.40;21.50;;;;;;20916823;28;20079;-58
2023/07/26 17:03:52;;;;;;;9.63;4.63;;;32.40;21.80;;;;;;20915001;28;20102;-58
2023/07/26 17:13:53;;;;;;;5.32;3.58;;;32.50;22.00;;;;;;20912529;28;20099;-57
2023/07/26 17:23:54;;;;;;;5.15;3.88;;;32.50;21.70;;;;;;20913983;28;20045;-57
2023/07/26 17:33:55;;;;;;;9.10;3.80;;;32.50;21.70;;;;;;20913854;28;20057;-57
2023/07/26 17:43:56;;;;;;;5.70;3.67;;;32.50;21.80;;;;;;20911779;28;20072;-58
2023/07/26 17:53:56;;;;;;;7.63;3.50;;;32.40;21.90;;;;;;20912882;28;20486;-57
2023/07/26 18:03:57;;;;;;;8.15;4.65;;;32.20;21.90;;;;;;20912339;28;20049;-59
2023/07/26 18:13:58;;;;;;;5.50;3.42;;;32.30;21.80;;;;;;20912532;28;20057;-59
2023/07/26 18:24:00;;;;;;;7.03;3.55;;;32.30;21.60;;;;;;20911547;28;20084;-57
2023/07/26 18:34:01;;;;;;;8.55;5.03;;;32.10;21.80;;;;;;20924206;28;20064;-57
2023/07/26 18:44:02;;;;;;;9.02;5.53;;;32.10;22.20;;;;;;20925504;28;20049;-57
2023/07/26 18:54:03;;;;;;;6.53;3.72;;;32.10;22.50;;;;;;20925609;28;20049;-57
2023/07/26 19:04:03;;;;;;;7.90;5.30;;;31.90;21.80;;;;;;20925453;28;20049;-58
2023/07/26 19:14:04;;;;;;;6.97;4.70;;;31.80;21.90;;;;;;20922711;28;20063;-57
2023/07/26 19:24:05;;;;;;;5.97;3.55;;;31.60;22.10;;;;;;20923143;28;20559;-57
2023/07/26 19:34:06;;;;;;;6.80;5.40;;;31.40;22.00;;;;;;20923124;28;20048;-56
2023/07/26 19:44:06;;;;;;;9.20;4.40;;;31.20;22.60;;;;;;20921364;28;20045;-57
2023/07/26 19:54:07;;;;;;;11.95;6.00;;;31.10;22.50;;;;;;20921335;28;20139;-57
2023/07/26 20:04:09;;;;;;;12.18;8.88;;;30.90;23.20;;;;;;20918577;28;20045;-58
2023/07/26 20:14:13;;;;;;;10.70;7.90;;;30.80;23.60;;;;;;20917962;28;20057;-58
2023/07/26 20:24:13;;;;;;;9.85;7.50;;;30.70;24.20;;;;;;20918867;28;20048;-57
2023/07/26 20:34:14;;;;;;;14.65;9.20;;;30.60;24.30;;;;;;20918235;28;20079;-57
2023/07/26 20:44:15;;;;;;;14.48;10.85;;;30.30;24.60;;;;;;20917124;28;20131;-58
2023/07/26 20:54:16;;;;;;;13.23;8.23;;;30.30;25.00;;;;;;20916715;28;20045;-57
2023/07/26 21:04:17;;;;;;;12.50;9.63;;;30.10;25.20;;;;;;20915798;28;20052;-57
2023/07/26 21:14:17;;;;;;;17.50;10.13;;;29.90;25.50;;;;;;20913826;28;20053;-57
2023/07/26 21:24:18;;;;;;;18.08;10.43;;;29.80;26.00;;;;;;20914501;28;20081;-57
2023/07/26 21:34:20;;;;;;;20.33;11.90;;;29.70;26.30;;;;;;20912970;28;20060;-59
2023/07/26 21:44:22;;;;;;;16.70;8.85;;;29.60;26.80;;;;;;20913398;28;20084;-57
2023/07/26 21:54:23;;;;;;;16.88;10.18;;;29.40;26.90;;;;;;20913023;28;20128;-56
2023/07/26 22:04:24;;;;;;;25.65;14.82;;;29.20;28.50;;;;;;20918425;28;20076;-58
2023/07/26 22:14:25;;;;;;;11.95;6.15;;;28.90;29.10;;;;;;20927872;28;20422;-56
2023/07/26 22:24:25;;;;;;;13.30;5.57;;;28.50;28.50;;;;;;20927950;28;20102;-58
2023/07/26 22:34:26;;;;;;;11.77;5.55;;;28.20;28.40;;;;;;20926821;28;20128;-57
2023/07/26 22:44:27;;;;;;;;;;;27.90;28.50;;;;;;20926267;28;20501;-58
2023/07/26 22:54:28;;;;;;;11.07;5.40;;;27.50;28.70;;;;;;20926251;28;19921;-56
2023/07/26 23:04:28;;;;;;;13.53;6.87;;;27.30;28.90;;;;;;20925414;28;20124;-56
2023/07/26 23:14:29;;;;;;;9.83;5.07;;;27.20;28.80;;;;;;20922036;28;20092;-58
2023/07/26 23:24:30;;;;;;;8.60;5.63;;;27.10;29.00;;;;;;20923535;28;20049;-58
2023/07/26 23:34:31;;;;;;;10.77;5.93;;;26.90;29.00;;;;;;20922067;28;20052;-57
2023/07/26 23:44:31;;;;;;;12.53;4.93;;;26.80;29.30;;;;;;20920865;28;20045;-57
2023/07/26 23:54:32;;;;;;;7.80;4.73;;;26.50;29.90;;;;;;20920404;28;20045;-58
